sensor_id;sensor_type;location;lat;lon;timestamp;P1;durP1;ratioP1;P2;durP2;ratioP2
59336;SDS011;45115;52.002;4.686;2022-12-04T00:01:57;43.85;;;18.60;;
59336;SDS011;45115;52.002;4.686;2022-12-04T00:04:24;46.75;;;18.08;;
59336;SDS011;45115;52.002;4.686;2022-12-04T00:06:52;40.90;;;16.13;;
59336;SDS011;45115;52.002;4.686;2022-12-04T00:09:20;47.70;;;18.42;;
59336;SDS011;45115;52.002;4.686;2022-12-04T00:11:47;41.90;;;16.83;;
59336;SDS011;45115;52.002;4.686;2022-12-04T00:14:14;41.45;;;19.45;;
59336;SDS011;45115;52.002;4.686;2022-12-04T00:16:40;43.30;;;18.00;;
59336;SDS011;45115;52.002;4.686;2022-12-04T00:19:09;47.17;;;18.20;;
59336;SDS011;45115;52.002;4.686;2022-12-04T00:21:35;43.22;;;17.67;;
59336;SDS011;45115;52.002;4.686;2022-12-04T00:24:02;43.53;;;18.02;;
59336;SDS011;45115;52.002;4.686;2022-12-04T00:26:30;42.75;;;18.48;;
59336;SDS011;45115;52.002;4.686;2022-12-04T00:28:56;47.83;;;19.40;;
59336;SDS011;45115;52.002;4.686;2022-12-04T00:31:24;43.70;;;17.55;;
59336;SDS011;45115;52.002;4.686;2022-12-04T00:33:52;42.03;;;17.95;;
59336;SDS011;45115;52.002;4.686;2022-12-04T00:36:21;47.38;;;17.98;;
59336;SDS011;45115;52.002;4.686;2022-12-04T00:38:49;43.17;;;20.67;;
59336;SDS011;45115;52.002;4.686;2022-12-04T00:41:17;45.88;;;18.70;;
59336;SDS011;45115;52.002;4.686;2022-12-04T00:43:47;45.33;;;19.10;;
59336;SDS011;45115;52.002;4.686;2022-12-04T00:46:13;41.10;;;17.65;;
59336;SDS011;45115;52.002;4.686;2022-12-04T00:48:41;49.83;;;18.38;;
59336;SDS011;45115;52.002;4.686;2022-12-04T00:51:08;47.90;;;19.02;;
59336;SDS011;45115;52.002;4.686;2022-12-04T00:53:38;48.92;;;18.60;;
59336;SDS011;45115;52.002;4.686;2022-12-04T00:56:06;43.95;;;16.67;;
59336;SDS011;45115;52.002;4.686;2022-12-04T00:58:34;48.60;;;19.10;;
59336;SDS011;45115;52.002;4.686;2022-12-04T01:01:01;45.65;;;18.80;;
59336;SDS011;45115;52.002;4.686;2022-12-04T01:03:28;50.83;;;18.42;;
59336;SDS011;45115;52.002;4.686;2022-12-04T01:05:55;44.78;;;17.25;;
59336;SDS011;45115;52.002;4.686;2022-12-04T01:08:22;47.78;;;19.60;;
59336;SDS011;45115;52.002;4.686;2022-12-04T01:10:50;48.83;;;19.20;;
59336;SDS011;45115;52.002;4.686;2022-12-04T01:13:17;48.08;;;19.58;;
59336;SDS011;45115;52.002;4.686;2022-12-04T01:15:44;45.13;;;19.50;;
59336;SDS011;45115;52.002;4.686;2022-12-04T01:18:12;47.10;;;18.25;;
59336;SDS011;45115;52.002;4.686;2022-12-04T01:20:39;49.60;;;18.65;;
59336;SDS011;45115;52.002;4.686;2022-12-04T01:23:11;45.33;;;18.60;;
59336;SDS011;45115;52.002;4.686;2022-12-04T01:25:38;44.30;;;20.02;;
59336;SDS011;45115;52.002;4.686;2022-12-04T01:28:06;46.75;;;17.63;;
59336;SDS011;45115;52.002;4.686;2022-12-04T01:30:32;47.97;;;18.80;;
59336;SDS011;45115;52.002;4.686;2022-12-04T01:32:59;48.38;;;19.60;;
59336;SDS011;45115;52.002;4.686;2022-12-04T01:35:26;44.88;;;18.48;;
59336;SDS011;45115;52.002;4.686;2022-12-04T01:37:53;45.83;;;20.35;;
59336;SDS011;45115;52.002;4.686;2022-12-04T01:40:19;53.80;;;20.48;;
59336;SDS011;45115;52.002;4.686;2022-12-04T01:42:46;45.78;;;18.25;;
59336;SDS011;45115;52.002;4.686;2022-12-04T01:48:12;40.50;;;17.15;;
59336;SDS011;45115;52.002;4.686;2022-12-04T01:50:43;50.08;;;19.27;;
59336;SDS011;45115;52.002;4.686;2022-12-04T01:53:10;48.10;;;18.95;;
59336;SDS011;45115;52.002;4.686;2022-12-04T01:55:37;54.97;;;21.85;;
59336;SDS011;45115;52.002;4.686;2022-12-04T01:58:05;50.13;;;19.95;;
59336;SDS011;45115;52.002;4.686;2022-12-04T02:00:33;44.17;;;18.50;;
59336;SDS011;45115;52.002;4.686;2022-12-04T02:03:01;45.10;;;18.17;;
59336;SDS011;45115;52.002;4.686;2022-12-04T02:05:28;42.90;;;18.75;;
59336;SDS011;45115;52.002;4.686;2022-12-04T02:07:55;49.60;;;19.88;;
59336;SDS011;45115;52.002;4.686;2022-12-04T02:10:24;48.85;;;19.10;;
59336;SDS011;45115;52.002;4.686;2022-12-04T02:13:06;54.40;;;19.52;;
59336;SDS011;45115;52.002;4.686;2022-12-04T02:15:40;49.35;;;19.73;;
59336;SDS011;45115;52.002;4.686;2022-12-04T02:18:14;55.30;;;21.30;;
59336;SDS011;45115;52.002;4.686;2022-12-04T02:20:47;48.40;;;20.15;;
59336;SDS011;45115;52.002;4.686;2022-12-04T02:23:19;54.33;;;20.33;;
59336;SDS011;45115;52.002;4.686;2022-12-04T02:26:08;53.97;;;22.42;;
59336;SDS011;45115;52.002;4.686;2022-12-04T02:28:47;48.17;;;18.88;;
59336;SDS011;45115;52.002;4.686;2022-12-04T02:31:26;47.60;;;18.60;;
59336;SDS011;45115;52.002;4.686;2022-12-04T02:33:57;53.85;;;20.45;;
59336;SDS011;45115;52.002;4.686;2022-12-04T02:36:28;53.40;;;20.10;;
59336;SDS011;45115;52.002;4.686;2022-12-04T02:38:57;45.97;;;18.98;;
59336;SDS011;45115;52.002;4.686;2022-12-04T02:41:31;47.83;;;18.80;;
59336;SDS011;45115;52.002;4.686;2022-12-04T02:44:06;55.10;;;20.83;;
59336;SDS011;45115;52.002;4.686;2022-12-04T02:46:37;55.13;;;22.48;;
59336;SDS011;45115;52.002;4.686;2022-12-04T02:49:09;52.65;;;22.02;;
59336;SDS011;45115;52.002;4.686;2022-12-04T02:51:40;57.55;;;21.38;;
59336;SDS011;45115;52.002;4.686;2022-12-04T02:54:10;52.78;;;22.52;;
59336;SDS011;45115;52.002;4.686;2022-12-04T02:56:43;51.90;;;21.88;;
59336;SDS011;45115;52.002;4.686;2022-12-04T02:59:14;59.30;;;23.35;;
59336;SDS011;45115;52.002;4.686;2022-12-04T03:01:45;52.33;;;20.38;;
59336;SDS011;45115;52.002;4.686;2022-12-04T03:04:16;56.67;;;20.08;;
59336;SDS011;45115;52.002;4.686;2022-12-04T03:06:46;50.60;;;20.05;;
59336;SDS011;45115;52.002;4.686;2022-12-04T03:09:19;49.75;;;18.75;;
59336;SDS011;45115;52.002;4.686;2022-12-04T03:11:51;55.25;;;21.25;;
59336;SDS011;45115;52.002;4.686;2022-12-04T03:14:28;51.33;;;20.27;;
59336;SDS011;45115;52.002;4.686;2022-12-04T03:16:57;45.55;;;18.15;;
59336;SDS011;45115;52.002;4.686;2022-12-04T03:19:33;53.22;;;20.40;;
59336;SDS011;45115;52.002;4.686;2022-12-04T03:22:03;48.72;;;20.35;;
59336;SDS011;45115;52.002;4.686;2022-12-04T03:24:33;53.00;;;21.02;;
59336;SDS011;45115;52.002;4.686;2022-12-04T03:27:06;47.00;;;19.75;;
59336;SDS011;45115;52.002;4.686;2022-12-04T03:29:40;49.42;;;20.40;;
59336;SDS011;45115;52.002;4.686;2022-12-04T03:32:11;50.22;;;20.23;;
59336;SDS011;45115;52.002;4.686;2022-12-04T03:34:43;49.80;;;19.83;;
59336;SDS011;45115;52.002;4.686;2022-12-04T03:37:17;50.90;;;21.13;;
59336;SDS011;45115;52.002;4.686;2022-12-04T03:39:46;49.58;;;20.88;;
59336;SDS011;45115;52.002;4.686;2022-12-04T03:42:21;50.78;;;20.77;;
59336;SDS011;45115;52.002;4.686;2022-12-04T03:44:54;48.55;;;19.58;;
59336;SDS011;45115;52.002;4.686;2022-12-04T03:47:27;46.55;;;19.60;;
59336;SDS011;45115;52.002;4.686;2022-12-04T03:49:59;54.95;;;20.23;;
59336;SDS011;45115;52.002;4.686;2022-12-04T03:52:29;48.28;;;19.60;;
59336;SDS011;45115;52.002;4.686;2022-12-04T03:55:03;51.03;;;20.27;;
59336;SDS011;45115;52.002;4.686;2022-12-04T03:57:33;49.45;;;21.40;;
59336;SDS011;45115;52.002;4.686;2022-12-04T04:00:07;54.85;;;20.48;;
59336;SDS011;45115;52.002;4.686;2022-12-04T04:02:38;49.65;;;18.85;;
59336;SDS011;45115;52.002;4.686;2022-12-04T04:05:09;52.38;;;19.73;;
59336;SDS011;45115;52.002;4.686;2022-12-04T04:07:39;47.80;;;18.95;;
59336;SDS011;45115;52.002;4.686;2022-12-04T04:10:11;52.28;;;19.92;;
59336;SDS011;45115;52.002;4.686;2022-12-04T04:12:41;53.58;;;21.45;;
59336;SDS011;45115;52.002;4.686;2022-12-04T04:15:33;55.90;;;20.45;;
59336;SDS011;45115;52.002;4.686;2022-12-04T04:18:22;49.78;;;20.40;;
59336;SDS011;45115;52.002;4.686;2022-12-04T04:21:08;50.78;;;20.70;;
59336;SDS011;45115;52.002;4.686;2022-12-04T04:23:52;46.97;;;20.58;;
59336;SDS011;45115;52.002;4.686;2022-12-04T04:26:38;55.72;;;20.85;;
59336;SDS011;45115;52.002;4.686;2022-12-04T04:29:09;47.17;;;19.67;;
59336;SDS011;45115;52.002;4.686;2022-12-04T04:31:38;59.97;;;23.50;;
59336;SDS011;45115;52.002;4.686;2022-12-04T04:34:10;50.60;;;21.65;;
59336;SDS011;45115;52.002;4.686;2022-12-04T04:36:44;49.08;;;20.42;;
59336;SDS011;45115;52.002;4.686;2022-12-04T04:39:20;48.40;;;18.73;;
59336;SDS011;45115;52.002;4.686;2022-12-04T04:41:54;51.38;;;21.55;;
59336;SDS011;45115;52.002;4.686;2022-12-04T04:44:27;54.28;;;22.20;;
59336;SDS011;45115;52.002;4.686;2022-12-04T04:47:02;58.90;;;21.90;;
59336;SDS011;45115;52.002;4.686;2022-12-04T04:49:33;54.17;;;22.70;;
59336;SDS011;45115;52.002;4.686;2022-12-04T04:52:02;53.08;;;20.52;;
59336;SDS011;45115;52.002;4.686;2022-12-04T04:54:29;56.83;;;21.58;;
59336;SDS011;45115;52.002;4.686;2022-12-04T04:56:57;51.05;;;21.55;;
59336;SDS011;45115;52.002;4.686;2022-12-04T04:59:24;51.45;;;19.98;;
59336;SDS011;45115;52.002;4.686;2022-12-04T05:01:50;46.33;;;19.48;;
59336;SDS011;45115;52.002;4.686;2022-12-04T05:04:19;51.97;;;20.58;;
59336;SDS011;45115;52.002;4.686;2022-12-04T05:06:45;49.00;;;20.48;;
59336;SDS011;45115;52.002;4.686;2022-12-04T05:09:13;56.33;;;22.60;;
59336;SDS011;45115;52.002;4.686;2022-12-04T05:11:40;53.20;;;22.15;;
59336;SDS011;45115;52.002;4.686;2022-12-04T05:14:06;55.70;;;21.55;;
59336;SDS011;45115;52.002;4.686;2022-12-04T05:16:33;51.83;;;20.42;;
59336;SDS011;45115;52.002;4.686;2022-12-04T05:19:00;54.05;;;20.02;;
59336;SDS011;45115;52.002;4.686;2022-12-04T05:21:45;51.38;;;21.52;;
59336;SDS011;45115;52.002;4.686;2022-12-04T05:24:12;50.97;;;20.92;;
59336;SDS011;45115;52.002;4.686;2022-12-04T05:26:39;54.03;;;23.05;;
59336;SDS011;45115;52.002;4.686;2022-12-04T05:29:06;56.45;;;22.25;;
59336;SDS011;45115;52.002;4.686;2022-12-04T05:31:32;56.35;;;22.98;;
59336;SDS011;45115;52.002;4.686;2022-12-04T05:33:59;52.22;;;22.52;;
59336;SDS011;45115;52.002;4.686;2022-12-04T05:36:26;54.75;;;20.70;;
59336;SDS011;45115;52.002;4.686;2022-12-04T05:38:54;46.25;;;20.35;;
59336;SDS011;45115;52.002;4.686;2022-12-04T05:41:21;51.05;;;21.38;;
59336;SDS011;45115;52.002;4.686;2022-12-04T05:43:48;55.05;;;21.23;;
59336;SDS011;45115;52.002;4.686;2022-12-04T05:46:15;52.47;;;21.00;;
59336;SDS011;45115;52.002;4.686;2022-12-04T05:48:42;50.35;;;22.08;;
59336;SDS011;45115;52.002;4.686;2022-12-04T05:51:09;53.95;;;22.80;;
59336;SDS011;45115;52.002;4.686;2022-12-04T05:53:41;54.30;;;23.88;;
59336;SDS011;45115;52.002;4.686;2022-12-04T05:56:12;55.42;;;20.13;;
59336;SDS011;45115;52.002;4.686;2022-12-04T05:58:39;47.95;;;21.88;;
59336;SDS011;45115;52.002;4.686;2022-12-04T06:01:09;49.85;;;22.65;;
59336;SDS011;45115;52.002;4.686;2022-12-04T06:03:41;48.65;;;21.05;;
59336;SDS011;45115;52.002;4.686;2022-12-04T06:06:10;52.92;;;21.85;;
59336;SDS011;45115;52.002;4.686;2022-12-04T06:08:38;53.00;;;20.52;;
59336;SDS011;45115;52.002;4.686;2022-12-04T06:11:12;50.70;;;20.13;;
59336;SDS011;45115;52.002;4.686;2022-12-04T06:13:41;52.17;;;21.63;;
59336;SDS011;45115;52.002;4.686;2022-12-04T06:16:12;49.70;;;21.15;;
59336;SDS011;45115;52.002;4.686;2022-12-04T06:18:40;52.25;;;20.70;;
59336;SDS011;45115;52.002;4.686;2022-12-04T06:21:06;49.78;;;21.70;;
59336;SDS011;45115;52.002;4.686;2022-12-04T06:23:35;52.63;;;23.25;;
59336;SDS011;45115;52.002;4.686;2022-12-04T06:26:03;54.78;;;21.13;;
59336;SDS011;45115;52.002;4.686;2022-12-04T06:28:33;55.65;;;22.17;;
59336;SDS011;45115;52.002;4.686;2022-12-04T06:31:00;48.28;;;20.92;;
59336;SDS011;45115;52.002;4.686;2022-12-04T06:33:27;48.78;;;20.35;;
59336;SDS011;45115;52.002;4.686;2022-12-04T06:35:58;52.42;;;21.58;;
59336;SDS011;45115;52.002;4.686;2022-12-04T06:40:52;55.08;;;21.40;;
59336;SDS011;45115;52.002;4.686;2022-12-04T06:43:18;55.80;;;20.52;;
59336;SDS011;45115;52.002;4.686;2022-12-04T06:45:47;48.42;;;19.95;;
59336;SDS011;45115;52.002;4.686;2022-12-04T06:48:14;53.13;;;22.75;;
59336;SDS011;45115;52.002;4.686;2022-12-04T06:50:41;47.28;;;20.25;;
59336;SDS011;45115;52.002;4.686;2022-12-04T06:53:08;48.38;;;20.52;;
59336;SDS011;45115;52.002;4.686;2022-12-04T06:55:34;52.13;;;21.70;;
59336;SDS011;45115;52.002;4.686;2022-12-04T06:58:01;50.90;;;21.17;;
59336;SDS011;45115;52.002;4.686;2022-12-04T07:00:28;43.20;;;18.85;;
59336;SDS011;45115;52.002;4.686;2022-12-04T07:02:56;55.67;;;22.50;;
59336;SDS011;45115;52.002;4.686;2022-12-04T07:05:22;55.65;;;20.75;;
59336;SDS011;45115;52.002;4.686;2022-12-04T07:07:49;55.55;;;20.20;;
59336;SDS011;45115;52.002;4.686;2022-12-04T07:10:16;57.63;;;22.95;;
59336;SDS011;45115;52.002;4.686;2022-12-04T07:12:42;47.65;;;20.98;;
59336;SDS011;45115;52.002;4.686;2022-12-04T07:15:09;46.85;;;20.58;;
59336;SDS011;45115;52.002;4.686;2022-12-04T07:17:36;51.70;;;21.67;;
59336;SDS011;45115;52.002;4.686;2022-12-04T07:20:05;55.83;;;21.98;;
59336;SDS011;45115;52.002;4.686;2022-12-04T07:22:32;52.85;;;20.55;;
59336;SDS011;45115;52.002;4.686;2022-12-04T07:24:58;52.05;;;23.20;;
59336;SDS011;45115;52.002;4.686;2022-12-04T07:27:25;57.13;;;22.27;;
59336;SDS011;45115;52.002;4.686;2022-12-04T07:29:52;53.05;;;23.02;;
59336;SDS011;45115;52.002;4.686;2022-12-04T07:32:18;58.83;;;22.77;;
59336;SDS011;45115;52.002;4.686;2022-12-04T07:34:45;48.78;;;20.77;;
59336;SDS011;45115;52.002;4.686;2022-12-04T07:37:13;54.03;;;21.15;;
59336;SDS011;45115;52.002;4.686;2022-12-04T07:39:40;52.13;;;22.40;;
59336;SDS011;45115;52.002;4.686;2022-12-04T07:42:08;49.97;;;21.52;;
59336;SDS011;45115;52.002;4.686;2022-12-04T07:44:35;54.05;;;20.52;;
59336;SDS011;45115;52.002;4.686;2022-12-04T07:47:02;54.70;;;21.85;;
59336;SDS011;45115;52.002;4.686;2022-12-04T07:49:28;58.10;;;22.98;;
59336;SDS011;45115;52.002;4.686;2022-12-04T07:51:55;56.13;;;23.13;;
59336;SDS011;45115;52.002;4.686;2022-12-04T07:54:23;45.88;;;20.85;;
59336;SDS011;45115;52.002;4.686;2022-12-04T07:56:51;50.97;;;22.38;;
59336;SDS011;45115;52.002;4.686;2022-12-04T07:59:29;46.33;;;19.10;;
59336;SDS011;45115;52.002;4.686;2022-12-04T08:01:58;49.75;;;20.65;;
59336;SDS011;45115;52.002;4.686;2022-12-04T08:04:40;53.13;;;20.55;;
59336;SDS011;45115;52.002;4.686;2022-12-04T08:07:08;47.97;;;21.45;;
59336;SDS011;45115;52.002;4.686;2022-12-04T08:09:59;54.30;;;20.27;;
59336;SDS011;45115;52.002;4.686;2022-12-04T08:12:38;49.88;;;21.65;;
59336;SDS011;45115;52.002;4.686;2022-12-04T08:15:05;48.63;;;19.92;;
59336;SDS011;45115;52.002;4.686;2022-12-04T08:17:32;45.65;;;19.42;;
59336;SDS011;45115;52.002;4.686;2022-12-04T08:19:59;48.83;;;20.38;;
59336;SDS011;45115;52.002;4.686;2022-12-04T08:22:25;47.53;;;20.85;;
59336;SDS011;45115;52.002;4.686;2022-12-04T08:24:52;50.88;;;21.23;;
59336;SDS011;45115;52.002;4.686;2022-12-04T08:27:20;53.97;;;20.15;;
59336;SDS011;45115;52.002;4.686;2022-12-04T08:29:47;51.33;;;21.38;;
59336;SDS011;45115;52.002;4.686;2022-12-04T08:32:13;46.90;;;19.52;;
59336;SDS011;45115;52.002;4.686;2022-12-04T08:34:40;47.15;;;20.25;;
59336;SDS011;45115;52.002;4.686;2022-12-04T08:37:06;53.30;;;20.13;;
59336;SDS011;45115;52.002;4.686;2022-12-04T08:39:33;48.10;;;20.70;;
59336;SDS011;45115;52.002;4.686;2022-12-04T08:42:00;50.65;;;20.42;;
59336;SDS011;45115;52.002;4.686;2022-12-04T08:44:28;53.25;;;21.08;;
59336;SDS011;45115;52.002;4.686;2022-12-04T08:46:55;48.30;;;20.58;;
59336;SDS011;45115;52.002;4.686;2022-12-04T08:49:21;53.40;;;22.30;;
59336;SDS011;45115;52.002;4.686;2022-12-04T08:51:48;53.92;;;20.90;;
59336;SDS011;45115;52.002;4.686;2022-12-04T08:54:15;45.80;;;19.50;;
59336;SDS011;45115;52.002;4.686;2022-12-04T08:56:41;47.05;;;18.85;;
59336;SDS011;45115;52.002;4.686;2022-12-04T08:59:09;46.33;;;20.35;;
59336;SDS011;45115;52.002;4.686;2022-12-04T09:01:39;50.60;;;20.67;;
59336;SDS011;45115;52.002;4.686;2022-12-04T09:04:06;50.55;;;20.80;;
59336;SDS011;45115;52.002;4.686;2022-12-04T09:06:33;48.33;;;19.15;;
59336;SDS011;45115;52.002;4.686;2022-12-04T09:08:59;48.97;;;20.52;;
59336;SDS011;45115;52.002;4.686;2022-12-04T09:11:27;47.30;;;18.83;;
59336;SDS011;45115;52.002;4.686;2022-12-04T09:13:58;51.78;;;20.73;;
59336;SDS011;45115;52.002;4.686;2022-12-04T09:16:26;44.22;;;20.58;;
59336;SDS011;45115;52.002;4.686;2022-12-04T09:18:55;49.30;;;19.02;;
59336;SDS011;45115;52.002;4.686;2022-12-04T09:21:22;39.80;;;18.00;;
59336;SDS011;45115;52.002;4.686;2022-12-04T09:23:50;52.33;;;19.35;;
59336;SDS011;45115;52.002;4.686;2022-12-04T09:26:18;50.83;;;20.25;;
59336;SDS011;45115;52.002;4.686;2022-12-04T09:28:47;46.00;;;19.85;;
59336;SDS011;45115;52.002;4.686;2022-12-04T09:31:14;50.45;;;20.35;;
59336;SDS011;45115;52.002;4.686;2022-12-04T09:33:42;46.90;;;18.42;;
59336;SDS011;45115;52.002;4.686;2022-12-04T09:36:10;49.10;;;21.25;;
59336;SDS011;45115;52.002;4.686;2022-12-04T09:38:40;51.88;;;20.90;;
59336;SDS011;45115;52.002;4.686;2022-12-04T09:41:13;48.45;;;19.45;;
59336;SDS011;45115;52.002;4.686;2022-12-04T09:46:22;48.25;;;18.27;;
59336;SDS011;45115;52.002;4.686;2022-12-04T09:49:01;46.42;;;19.83;;
59336;SDS011;45115;52.002;4.686;2022-12-04T09:51:33;51.72;;;20.77;;
59336;SDS011;45115;52.002;4.686;2022-12-04T09:54:04;46.08;;;19.40;;
59336;SDS011;45115;52.002;4.686;2022-12-04T09:56:36;44.40;;;20.88;;
59336;SDS011;45115;52.002;4.686;2022-12-04T09:59:04;48.38;;;20.60;;
59336;SDS011;45115;52.002;4.686;2022-12-04T10:01:40;47.33;;;19.67;;
59336;SDS011;45115;52.002;4.686;2022-12-04T10:04:10;48.53;;;19.27;;
59336;SDS011;45115;52.002;4.686;2022-12-04T10:06:39;45.17;;;19.90;;
59336;SDS011;45115;52.002;4.686;2022-12-04T10:09:15;46.90;;;20.73;;
59336;SDS011;45115;52.002;4.686;2022-12-04T10:11:49;49.42;;;19.83;;
59336;SDS011;45115;52.002;4.686;2022-12-04T10:14:23;48.90;;;20.25;;
59336;SDS011;45115;52.002;4.686;2022-12-04T10:17:11;51.40;;;21.17;;
59336;SDS011;45115;52.002;4.686;2022-12-04T10:19:46;45.03;;;19.63;;
59336;SDS011;45115;52.002;4.686;2022-12-04T10:22:24;47.80;;;20.05;;
59336;SDS011;45115;52.002;4.686;2022-12-04T10:24:59;48.90;;;19.65;;
59336;SDS011;45115;52.002;4.686;2022-12-04T10:27:31;46.38;;;19.52;;
59336;SDS011;45115;52.002;4.686;2022-12-04T10:30:02;44.80;;;20.13;;
59336;SDS011;45115;52.002;4.686;2022-12-04T10:32:33;47.45;;;19.60;;
59336;SDS011;45115;52.002;4.686;2022-12-04T10:35:02;49.80;;;19.40;;
59336;SDS011;45115;52.002;4.686;2022-12-04T10:37:42;47.88;;;21.13;;
59336;SDS011;45115;52.002;4.686;2022-12-04T10:40:12;52.10;;;22.27;;
59336;SDS011;45115;52.002;4.686;2022-12-04T10:42:45;47.33;;;18.08;;
59336;SDS011;45115;52.002;4.686;2022-12-04T10:45:18;48.17;;;18.98;;
59336;SDS011;45115;52.002;4.686;2022-12-04T10:47:47;42.38;;;18.83;;
59336;SDS011;45115;52.002;4.686;2022-12-04T10:50:17;51.05;;;19.70;;
59336;SDS011;45115;52.002;4.686;2022-12-04T10:52:47;46.78;;;18.60;;
59336;SDS011;45115;52.002;4.686;2022-12-04T10:55:14;41.20;;;17.33;;
59336;SDS011;45115;52.002;4.686;2022-12-04T10:57:41;41.70;;;17.40;;
59336;SDS011;45115;52.002;4.686;2022-12-04T11:00:22;47.15;;;19.48;;
59336;SDS011;45115;52.002;4.686;2022-12-04T11:02:51;42.63;;;17.88;;
59336;SDS011;45115;52.002;4.686;2022-12-04T11:05:23;39.42;;;16.00;;
59336;SDS011;45115;52.002;4.686;2022-12-04T11:07:55;48.35;;;19.80;;
59336;SDS011;45115;52.002;4.686;2022-12-04T11:10:23;43.45;;;17.63;;
59336;SDS011;45115;52.002;4.686;2022-12-04T11:13:00;36.03;;;14.70;;
59336;SDS011;45115;52.002;4.686;2022-12-04T11:15:28;35.33;;;14.68;;
59336;SDS011;45115;52.002;4.686;2022-12-04T11:18:05;42.50;;;16.92;;
59336;SDS011;45115;52.002;4.686;2022-12-04T11:20:32;37.80;;;15.70;;
59336;SDS011;45115;52.002;4.686;2022-12-04T11:23:00;40.08;;;16.30;;
59336;SDS011;45115;52.002;4.686;2022-12-04T11:25:30;33.67;;;14.52;;
59336;SDS011;45115;52.002;4.686;2022-12-04T11:28:00;38.00;;;15.38;;
59336;SDS011;45115;52.002;4.686;2022-12-04T11:30:30;35.20;;;15.82;;
59336;SDS011;45115;52.002;4.686;2022-12-04T11:33:00;40.55;;;15.88;;
59336;SDS011;45115;52.002;4.686;2022-12-04T11:35:29;38.30;;;15.73;;
59336;SDS011;45115;52.002;4.686;2022-12-04T11:37:59;32.78;;;14.10;;
59336;SDS011;45115;52.002;4.686;2022-12-04T11:40:33;36.75;;;15.20;;
59336;SDS011;45115;52.002;4.686;2022-12-04T11:43:01;41.65;;;15.95;;
59336;SDS011;45115;52.002;4.686;2022-12-04T11:45:30;38.47;;;15.90;;
59336;SDS011;45115;52.002;4.686;2022-12-04T11:47:58;36.60;;;16.05;;
59336;SDS011;45115;52.002;4.686;2022-12-04T11:50:32;36.67;;;15.77;;
59336;SDS011;45115;52.002;4.686;2022-12-04T11:53:09;37.72;;;15.98;;
59336;SDS011;45115;52.002;4.686;2022-12-04T11:55:47;33.95;;;15.40;;
59336;SDS011;45115;52.002;4.686;2022-12-04T11:58:37;38.13;;;15.48;;
59336;SDS011;45115;52.002;4.686;2022-12-04T12:01:19;37.85;;;16.25;;
59336;SDS011;45115;52.002;4.686;2022-12-04T12:03:58;40.28;;;16.77;;
59336;SDS011;45115;52.002;4.686;2022-12-04T12:06:42;37.70;;;14.98;;
59336;SDS011;45115;52.002;4.686;2022-12-04T12:09:24;41.05;;;15.68;;
59336;SDS011;45115;52.002;4.686;2022-12-04T12:12:01;35.63;;;16.57;;
59336;SDS011;45115;52.002;4.686;2022-12-04T12:14:33;35.60;;;15.63;;
59336;SDS011;45115;52.002;4.686;2022-12-04T12:17:09;40.88;;;16.73;;
59336;SDS011;45115;52.002;4.686;2022-12-04T12:20:00;39.00;;;16.05;;
59336;SDS011;45115;52.002;4.686;2022-12-04T12:22:53;33.22;;;13.85;;
59336;SDS011;45115;52.002;4.686;2022-12-04T12:25:34;36.03;;;15.20;;
59336;SDS011;45115;52.002;4.686;2022-12-04T12:28:11;35.47;;;14.65;;
59336;SDS011;45115;52.002;4.686;2022-12-04T12:30:56;41.60;;;15.75;;
59336;SDS011;45115;52.002;4.686;2022-12-04T12:33:35;34.05;;;14.07;;
59336;SDS011;45115;52.002;4.686;2022-12-04T12:36:07;31.55;;;14.15;;
59336;SDS011;45115;52.002;4.686;2022-12-04T12:38:36;36.88;;;14.93;;
59336;SDS011;45115;52.002;4.686;2022-12-04T12:41:11;31.33;;;14.32;;
59336;SDS011;45115;52.002;4.686;2022-12-04T12:43:40;31.20;;;14.38;;
59336;SDS011;45115;52.002;4.686;2022-12-04T12:46:13;36.85;;;14.50;;
59336;SDS011;45115;52.002;4.686;2022-12-04T12:48:45;32.58;;;13.98;;
59336;SDS011;45115;52.002;4.686;2022-12-04T12:51:20;32.10;;;13.77;;
59336;SDS011;45115;52.002;4.686;2022-12-04T12:53:54;36.33;;;14.85;;
59336;SDS011;45115;52.002;4.686;2022-12-04T12:56:30;33.33;;;13.13;;
59336;SDS011;45115;52.002;4.686;2022-12-04T12:59:02;31.95;;;13.15;;
59336;SDS011;45115;52.002;4.686;2022-12-04T13:01:37;34.33;;;15.02;;
59336;SDS011;45115;52.002;4.686;2022-12-04T13:04:12;31.00;;;14.30;;
59336;SDS011;45115;52.002;4.686;2022-12-04T13:06:46;27.35;;;13.43;;
59336;SDS011;45115;52.002;4.686;2022-12-04T13:09:17;31.90;;;12.75;;
59336;SDS011;45115;52.002;4.686;2022-12-04T13:11:51;32.42;;;13.88;;
59336;SDS011;45115;52.002;4.686;2022-12-04T13:14:23;31.88;;;14.13;;
59336;SDS011;45115;52.002;4.686;2022-12-04T13:16:50;30.83;;;14.13;;
59336;SDS011;45115;52.002;4.686;2022-12-04T13:21:52;28.35;;;13.15;;
59336;SDS011;45115;52.002;4.686;2022-12-04T13:24:41;30.10;;;13.20;;
59336;SDS011;45115;52.002;4.686;2022-12-04T13:27:21;37.05;;;15.88;;
59336;SDS011;45115;52.002;4.686;2022-12-04T13:30:02;31.00;;;14.20;;
59336;SDS011;45115;52.002;4.686;2022-12-04T13:32:44;30.88;;;13.43;;
59336;SDS011;45115;52.002;4.686;2022-12-04T13:35:33;28.40;;;13.80;;
59336;SDS011;45115;52.002;4.686;2022-12-04T13:38:27;28.67;;;11.32;;
59336;SDS011;45115;52.002;4.686;2022-12-04T13:41:01;29.98;;;12.77;;
59336;SDS011;45115;52.002;4.686;2022-12-04T13:43:33;23.88;;;11.93;;
59336;SDS011;45115;52.002;4.686;2022-12-04T13:46:03;29.30;;;13.50;;
59336;SDS011;45115;52.002;4.686;2022-12-04T13:48:36;30.33;;;12.52;;
59336;SDS011;45115;52.002;4.686;2022-12-04T13:51:24;28.35;;;12.45;;
59336;SDS011;45115;52.002;4.686;2022-12-04T13:54:01;30.80;;;13.00;;
59336;SDS011;45115;52.002;4.686;2022-12-04T13:56:46;30.52;;;13.70;;
59336;SDS011;45115;52.002;4.686;2022-12-04T13:59:23;27.75;;;12.32;;
59336;SDS011;45115;52.002;4.686;2022-12-04T14:02:00;31.75;;;14.18;;
59336;SDS011;45115;52.002;4.686;2022-12-04T14:04:29;31.13;;;13.70;;
59336;SDS011;45115;52.002;4.686;2022-12-04T14:06:58;28.25;;;13.30;;
59336;SDS011;45115;52.002;4.686;2022-12-04T14:09:28;31.95;;;12.80;;
59336;SDS011;45115;52.002;4.686;2022-12-04T14:12:04;28.35;;;13.18;;
59336;SDS011;45115;52.002;4.686;2022-12-04T14:14:35;28.52;;;13.23;;
59336;SDS011;45115;52.002;4.686;2022-12-04T14:17:13;28.63;;;12.88;;
59336;SDS011;45115;52.002;4.686;2022-12-04T14:19:44;28.80;;;12.70;;
59336;SDS011;45115;52.002;4.686;2022-12-04T14:22:28;26.13;;;12.60;;
59336;SDS011;45115;52.002;4.686;2022-12-04T14:25:20;29.42;;;12.65;;
59336;SDS011;45115;52.002;4.686;2022-12-04T14:27:59;28.13;;;11.63;;
59336;SDS011;45115;52.002;4.686;2022-12-04T14:30:39;27.55;;;11.88;;
59336;SDS011;45115;52.002;4.686;2022-12-04T14:33:07;29.90;;;13.20;;
59336;SDS011;45115;52.002;4.686;2022-12-04T14:35:35;26.15;;;11.80;;
59336;SDS011;45115;52.002;4.686;2022-12-04T14:38:10;26.63;;;12.73;;
59336;SDS011;45115;52.002;4.686;2022-12-04T14:40:43;23.85;;;11.27;;
59336;SDS011;45115;52.002;4.686;2022-12-04T14:45:45;27.67;;;11.77;;
59336;SDS011;45115;52.002;4.686;2022-12-04T14:48:28;29.23;;;13.20;;
59336;SDS011;45115;52.002;4.686;2022-12-04T14:51:03;28.63;;;11.70;;
59336;SDS011;45115;52.002;4.686;2022-12-04T14:53:37;24.52;;;12.70;;
59336;SDS011;45115;52.002;4.686;2022-12-04T14:56:17;24.50;;;11.90;;
59336;SDS011;45115;52.002;4.686;2022-12-04T14:58:49;29.80;;;13.13;;